Time;durP1;ratioP1;P1;durP2;ratioP2;P2;SDS_P1;SDS_P2;PMS_P1;PMS_P2;Temp;Humidity;BMP_temperature;BMP_pressure;BME280_temperature;BME280_humidity;BME280_pressure;Samples;Min_cycle;Max_cycle;Signal;HPM_P1;HPM_P2
2022/12/03 00:02:20;;;;;;;5.87;3.02;;;;;;;0.52;58.52;101648.11;1781059;79;20994;-74
2022/12/03 00:04:47;;;;;;;7.40;3.42;;;;;;;0.51;58.58;101649.00;1769401;79;21816;-73
2022/12/03 00:07:13;;;;;;;5.62;2.95;;;;;;;0.52;58.64;101657.21;1793687;77;20996;-72
2022/12/03 00:09:39;;;;;;;5.87;3.17;;;;;;;0.51;58.63;101656.80;1786634;77;21005;-72
2022/12/03 00:12:06;;;;;;;5.95;3.37;;;;;;;0.50;58.71;101660.28;1793009;77;21410;-72
2022/12/03 00:14:33;;;;;;;5.47;3.08;;;;;;;0.51;58.79;101660.70;1803688;79;21009;-72
2022/12/03 00:16:59;;;;;;;5.42;3.30;;;;;;;0.51;58.79;101658.54;1804439;79;21974;-72
2022/12/03 00:19:25;;;;;;;6.12;3.15;;;;;;;0.50;58.84;101660.28;1802664;79;21382;-72
2022/12/03 00:21:52;;;;;;;5.85;3.12;;;;;;;0.51;58.89;101663.30;1804192;79;20958;-72
2022/12/03 00:24:18;;;;;;;6.05;3.10;;;;;;;0.52;58.94;101657.21;1797909;77;21085;-72
2022/12/03 00:26:45;;;;;;;7.80;3.22;;;;;;;0.52;59.03;101655.05;1764868;79;21003;-72
2022/12/03 00:29:12;;;;;;;6.25;3.10;;;;;;;0.52;58.99;101656.35;1805066;77;21777;-72
2022/12/03 00:31:40;;;;;;;5.87;2.85;;;;;;;0.51;58.94;101662.00;1806308;77;21059;-73
2022/12/03 00:34:07;;;;;;;6.37;3.00;;;;;;;0.50;59.00;101659.43;1804424;77;21072;-72
2022/12/03 00:36:33;;;;;;;5.85;3.02;;;;;;;0.50;58.97;101656.83;1801755;77;21002;-73
2022/12/03 00:39:00;;;;;;;5.70;3.10;;;;;;;0.47;58.90;101661.61;1780374;79;21009;-72
2022/12/03 00:41:26;;;;;;;6.25;3.22;;;;;;;0.47;58.97;101668.11;1804498;79;21830;-72
2022/12/03 00:43:56;;;;;;;6.28;3.50;;;;;;;0.46;58.94;101669.44;1796011;79;20988;-73
2022/12/03 00:46:24;;;;;;;5.87;3.27;;;;;;;0.45;59.00;101669.89;1798063;79;20982;-73
2022/12/03 00:48:50;;;;;;;6.87;3.20;;;;;;;0.45;59.12;101667.29;1794184;77;21614;-72
2022/12/03 00:51:17;;;;;;;7.95;3.52;;;;;;;0.46;59.16;101671.59;1772753;79;21417;-75
2022/12/03 00:53:43;;;;;;;5.45;3.15;;;;;;;0.46;59.19;101671.59;1762826;79;22372;-72
2022/12/03 00:56:09;;;;;;;6.55;3.50;;;;;;;0.46;59.26;101671.59;1787893;78;21084;-76
2022/12/03 00:58:37;;;;;;;8.75;3.60;;;;;;;0.46;59.24;101668.14;1798273;77;20969;-72
2022/12/03 01:01:04;;;;;;;7.50;3.20;;;;;;;0.45;59.32;101675.09;1794266;77;21432;-72
2022/12/03 01:03:30;;;;;;;5.55;3.15;;;;;;;0.47;59.31;101675.91;1803595;77;21010;-72
2022/12/03 01:05:57;;;;;;;6.28;3.50;;;;;;;0.48;59.37;101671.56;1804217;77;21724;-77
2022/12/03 01:08:23;;;;;;;4.85;3.25;;;;;;;0.48;59.44;101669.86;1796665;79;21382;-72
2022/12/03 01:10:50;;;;;;;6.87;3.75;;;;;;;0.49;59.45;101674.17;1815541;78;21033;-73
2022/12/03 01:13:16;;;;;;;5.05;3.00;;;;;;;0.48;59.46;101671.56;1782003;77;21392;-74
2022/12/03 01:15:43;;;;;;;6.60;3.45;;;;;;;0.48;59.50;101677.66;1815470;79;20935;-73
2022/12/03 01:18:09;;;;;;;6.78;3.40;;;;;;;0.47;59.45;101679.81;1813655;79;21803;-80
2022/12/03 01:20:37;;;;;;;5.45;3.30;;;;;;;0.46;59.56;101679.40;1815342;79;20938;-72
2022/12/03 01:23:04;;;;;;;5.08;3.12;;;;;;;0.47;59.62;101676.36;1815480;79;20930;-72
2022/12/03 01:25:30;;;;;;;5.60;3.33;;;;;;;0.48;59.65;101678.06;1813792;77;21037;-72
2022/12/03 01:27:56;;;;;;;5.85;3.75;;;;;;;0.46;59.57;101678.09;1798148;77;21577;-72
2022/12/03 01:30:23;;;;;;;6.15;3.35;;;;;;;0.45;59.61;101680.28;1779090;77;22342;-72
2022/12/03 01:32:49;;;;;;;8.55;3.83;;;;;;;0.44;59.58;101681.17;1815324;79;20958;-73
2022/12/03 01:35:16;;;;;;;6.25;3.42;;;;;;;0.44;59.60;101682.91;1814962;77;20950;-72
2022/12/03 01:37:42;;;;;;;6.35;3.17;;;;;;;0.42;59.43;101679.05;1814166;79;20950;-72
2022/12/03 01:40:11;;;;;;;4.42;2.80;;;;;;;0.41;59.43;101688.17;1816097;77;21006;-72
2022/12/03 01:42:39;;;;;;;7.08;3.25;;;;;;;0.39;59.35;101693.84;1815674;79;22482;-73
2022/12/03 01:45:10;;;;;;;5.85;3.30;;;;;;;0.36;59.40;101689.53;1815247;79;20994;-73
2022/12/03 01:47:37;;;;;;;6.83;3.40;;;;;;;0.35;59.43;101694.77;1767223;80;20989;-73
2022/12/03 01:50:14;;;;;;;4.67;2.80;;;;;;;0.33;59.47;101700.43;1804483;79;21421;-72
2022/12/03 01:52:41;;;;;;;4.83;3.22;;;;;;;0.31;59.53;101696.56;1813378;78;21002;-72
2022/12/03 01:55:15;;;;;;;5.62;3.30;;;;;;;0.32;59.62;101700.88;1809381;77;21948;-74
2022/12/03 01:57:45;;;;;;;8.38;3.60;;;;;;;0.30;59.68;101696.15;1800794;79;21008;-72
2022/12/03 02:00:17;;;;;;;5.55;3.62;;;;;;;0.30;59.72;101703.95;1797317;79;20978;-73
2022/12/03 02:02:43;;;;;;;5.72;3.47;;;;;;;0.28;59.72;101708.28;1765717;79;20956;-72
2022/12/03 02:05:23;;;;;;;7.28;4.10;;;;;;;0.27;59.74;101711.77;1796423;77;20982;-72
2022/12/03 02:07:49;;;;;;;8.03;3.83;;;;;;;0.25;59.69;101708.34;1811467;79;22425;-72
2022/12/03 02:10:18;;;;;;;6.65;3.67;;;;;;;0.24;59.76;101715.72;1804142;77;20917;-72
2022/12/03 02:13:05;;;;;;;9.73;3.50;;;;;;;0.20;59.95;101713.62;1776939;79;20967;-72
2022/12/03 02:15:32;;;;;;;6.10;3.45;;;;;;;0.20;60.01;101714.06;1799549;77;20997;-73
2022/12/03 02:17:58;;;;;;;5.95;3.60;;;;;;;0.18;60.11;101715.36;1789359;79;21079;-73
2022/12/03 02:20:25;;;;;;;8.18;3.47;;;;;;;0.17;60.15;101721.88;1790902;77;22428;-73
2022/12/03 02:23:06;;;;;;;5.50;3.50;;;;;;;0.19;60.26;101718.81;1798498;79;21032;-72
2022/12/03 02:25:34;;;;;;;6.33;3.67;;;;;;;0.20;60.30;101724.45;1758618;79;21421;-72
2022/12/03 02:28:00;;;;;;;7.58;4.08;;;;;;;0.19;60.37;101723.60;1797987;79;21051;-72
2022/12/03 02:30:28;;;;;;;6.47;3.67;;;;;;;0.18;60.39;101721.86;1812884;78;20938;-73
2022/12/03 02:32:55;;;;;;;9.63;3.98;;;;;;;0.19;60.41;101722.30;1783814;80;21858;-73
2022/12/03 02:35:25;;;;;;;7.22;3.83;;;;;;;0.17;60.44;101724.04;1775356;79;21516;-72
2022/12/03 02:37:57;;;;;;;8.03;3.72;;;;;;;0.18;60.52;101727.49;1815398;77;21023;-75
2022/12/03 02:40:26;;;;;;;9.58;4.10;;;;;;;0.19;60.59;101730.51;1805619;77;20945;-73
2022/12/03 02:42:56;;;;;;;8.00;4.15;;;;;;;0.18;60.66;101732.25;1810537;79;21032;-72
2022/12/03 02:45:26;;;;;;;7.03;4.35;;;;;;;0.18;60.75;101731.39;1809687;77;21806;-72
2022/12/03 02:48:07;;;;;;;8.00;4.00;;;;;;;0.17;60.84;101733.58;1813350;77;20902;-74
2022/12/03 02:50:37;;;;;;;7.10;3.87;;;;;;;0.18;60.93;101731.39;1800616;79;20963;-73
2022/12/03 02:53:06;;;;;;;6.33;4.03;;;;;;;0.16;61.02;101733.16;1815759;77;20950;-73
2022/12/03 02:55:33;;;;;;;6.67;3.85;;;;;;;0.16;61.13;101734.02;1813605;79;20938;-73
2022/12/03 02:57:59;;;;;;;7.33;4.37;;;;;;;0.17;61.22;101742.23;1815361;79;21971;-72
2022/12/03 03:00:26;;;;;;;6.50;4.05;;;;;;;0.16;61.34;101739.66;1798664;77;20986;-73
2022/12/03 03:02:52;;;;;;;7.95;4.40;;;;;;;0.16;61.40;101738.36;1811445;77;21532;-72
2022/12/03 03:05:22;;;;;;;7.67;4.08;;;;;;;0.17;61.49;101737.47;1801150;77;21454;-73
2022/12/03 03:07:49;;;;;;;8.53;4.22;;;;;;;0.15;61.62;101740.09;1798975;79;21040;-73
2022/12/03 03:10:17;;;;;;;8.48;4.12;;;;;;;0.15;61.75;101743.14;1735836;80;21846;-72
2022/12/03 03:12:44;;;;;;;7.20;4.60;;;;;;;0.13;61.81;101749.66;1719438;81;21417;-73
2022/12/03 03:15:10;;;;;;;9.10;4.60;;;;;;;0.12;62.00;101752.28;1681269;83;21427;-72
2022/12/03 03:17:37;;;;;;;10.65;4.87;;;;;;;0.11;62.12;101754.47;1767964;81;20949;-72
2022/12/03 03:20:05;;;;;;;10.13;4.95;;;;;;;0.09;62.33;101755.77;1767860;79;20933;-73
2022/12/03 03:22:33;;;;;;;8.55;4.92;;;;;;;0.09;62.54;101749.27;1745554;80;22007;-72
2022/12/03 03:24:59;;;;;;;7.83;4.67;;;;;;;0.07;62.84;101753.63;1765197;79;21091;-73
2022/12/03 03:27:26;;;;;;;10.15;5.03;;;;;;;0.06;63.00;101757.55;1764429;79;21016;-72
2022/12/03 03:29:53;;;;;;;12.15;5.30;;;;;;;0.04;63.25;101763.22;1754174;79;21324;-72
2022/12/03 03:32:19;;;;;;;10.70;5.67;;;;;;;0.01;63.45;101768.47;1767476;79;21008;-72
2022/12/03 03:34:46;;;;;;;8.88;5.22;;;;;;;-0.03;63.55;101764.59;1766213;79;22510;-72
2022/12/03 03:37:12;;;;;;;10.25;5.58;;;;;;;-0.04;63.70;101760.72;1765634;79;20977;-75
2022/12/03 03:39:39;;;;;;;10.18;5.97;;;;;;;-0.07;63.88;101762.92;1743584;79;21039;-73
2022/12/03 03:42:05;;;;;;;9.90;5.35;;;;;;;-0.10;64.09;101768.14;1767310;79;20957;-73
2022/12/03 03:44:32;;;;;;;9.08;5.37;;;;;;;-0.11;64.25;101766.86;1766224;79;21075;-73
2022/12/03 03:46:58;;;;;;;11.57;6.10;;;;;;;-0.12;64.46;101766.01;1767616;81;21808;-73
2022/12/03 03:49:25;;;;;;;11.78;6.12;;;;;;;-0.15;64.64;101769.95;1767947;79;20973;-73
2022/12/03 03:51:51;;;;;;;11.43;5.80;;;;;;;-0.18;64.75;101776.50;1768797;79;21059;-72
2022/12/03 03:54:17;;;;;;;11.55;5.55;;;;;;;-0.20;64.98;101773.47;1770029;79;20958;-73
2022/12/03 03:56:44;;;;;;;13.30;6.33;;;;;;;-0.21;65.09;101779.11;1730837;81;20960;-72
2022/12/03 03:59:11;;;;;;;10.35;5.90;;;;;;;-0.21;65.23;101776.95;1710056;82;21591;-72
2022/12/03 04:01:38;;;;;;;12.53;5.85;;;;;;;-0.20;65.32;101780.82;1722116;79;20976;-72
2022/12/03 04:04:07;;;;;;;9.18;5.70;;;;;;;-0.23;65.37;101778.27;1767827;79;21040;-72
2022/12/03 04:06:34;;;;;;;10.53;6.00;;;;;;;-0.24;65.58;101779.59;1765725;81;20969;-72
2022/12/03 04:09:00;;;;;;;8.85;5.65;;;;;;;-0.24;65.69;101782.19;1763550;81;21062;-72
2022/12/03 04:14:11;;;;;;;10.18;5.78;;;;;;;-0.27;65.93;101793.92;1804121;77;21037;-73
2022/12/03 04:16:37;;;;;;;11.48;6.20;;;;;;;-0.33;66.11;101794.84;1800377;77;20942;-72
2022/12/03 04:19:03;;;;;;;11.33;5.92;;;;;;;-0.35;66.36;101796.61;1800963;77;21002;-72
2022/12/03 04:24:15;;;;;;;11.70;6.90;;;;;;;-0.42;66.97;101798.84;1774853;79;21771;-73
2022/12/03 04:29:26;;;;;;;13.35;6.35;;;;;;;-0.49;67.47;101803.67;1787680;77;20989;-72
2022/12/03 04:37:08;;;;;;;11.10;6.58;;;;;;;-0.55;68.41;101815.44;1791032;77;21733;-72
2022/12/03 04:39:35;;;;;;;13.00;6.87;;;;;;;-0.59;68.70;101823.67;1796419;77;20934;-72
2022/12/03 04:42:01;;;;;;;13.78;6.40;;;;;;;-0.64;68.97;101831.52;1782094;77;21006;-72
2022/12/03 04:44:37;;;;;;;11.68;6.42;;;;;;;-0.66;69.15;101832.41;1804117;77;21540;-72
2022/12/03 04:47:10;;;;;;;12.28;6.92;;;;;;;-0.68;69.29;101835.44;1803840;79;20955;-72
2022/12/03 04:49:40;;;;;;;9.60;6.10;;;;;;;-0.69;69.43;101838.47;1800515;77;22580;-72
2022/12/03 04:52:08;;;;;;;11.57;7.10;;;;;;;-0.70;69.55;101844.53;1804356;77;20947;-72
2022/12/03 04:54:36;;;;;;;12.50;6.90;;;;;;;-0.68;69.62;101847.11;1803988;79;21555;-72
2022/12/03 04:57:03;;;;;;;11.95;6.75;;;;;;;-0.66;69.70;101855.33;1785522;78;21444;-72
2022/12/03 04:59:29;;;;;;;11.90;6.50;;;;;;;-0.69;69.63;101851.44;1797733;77;20990;-72
2022/12/03 05:01:57;;;;;;;11.97;6.60;;;;;;;-0.70;69.64;101854.05;1781380;77;22547;-71
2022/12/03 05:04:23;;;;;;;11.18;6.62;;;;;;;-0.69;69.63;101860.52;1779105;77;21452;-72
2022/12/03 05:06:50;;;;;;;15.68;7.97;;;;;;;-0.69;69.59;101859.23;1772459;79;21453;-73
2022/12/03 05:09:16;;;;;;;13.13;6.90;;;;;;;-0.68;69.51;101862.68;1765648;79;21047;-72
2022/12/03 05:11:42;;;;;;;12.43;6.97;;;;;;;-0.66;69.46;101868.73;1802789;79;20976;-72
2022/12/03 05:14:09;;;;;;;10.10;6.65;;;;;;;-0.66;69.33;101874.78;1776295;79;21830;-80
2022/12/03 05:16:36;;;;;;;10.65;6.70;;;;;;;-0.68;69.24;101872.62;1812986;79;20934;-72
2022/12/03 05:19:03;;;;;;;12.33;6.62;;;;;;;-0.72;69.14;101877.42;1807486;79;20968;-72
2022/12/03 05:21:29;;;;;;;10.93;6.28;;;;;;;-0.76;69.13;101877.05;1816037;77;20986;-72
2022/12/03 05:23:56;;;;;;;15.43;7.78;;;;;;;-0.76;69.11;101875.75;1819273;79;20989;-73
2022/12/03 05:26:22;;;;;;;14.20;7.42;;;;;;;-0.73;69.13;101880.90;1788674;77;21822;-70
2022/12/03 05:28:49;;;;;;;15.48;7.10;;;;;;;-0.70;69.14;101886.48;1783374;77;21100;-70
2022/12/03 05:31:15;;;;;;;13.90;8.08;;;;;;;-0.70;69.04;101893.83;1813151;77;20958;-70
2022/12/03 05:33:42;;;;;;;12.63;7.42;;;;;;;-0.70;68.94;101891.23;1817983;79;20982;-71
2022/12/03 05:36:09;;;;;;;16.02;8.33;;;;;;;-0.71;68.78;101890.81;1807003;77;21075;-74
2022/12/03 05:38:35;;;;;;;13.28;7.78;;;;;;;-0.73;68.65;101902.95;1815647;79;21821;-72
2022/12/03 05:41:01;;;;;;;14.68;8.28;;;;;;;-0.76;68.44;101892.61;1796979;77;21049;-72
2022/12/03 05:43:28;;;;;;;15.25;8.28;;;;;;;-0.78;68.36;101905.14;1777606;79;21082;-72
2022/12/03 05:45:54;;;;;;;15.93;7.92;;;;;;;-0.78;68.41;101911.63;1791381;79;20962;-72
2022/12/03 05:48:21;;;;;;;15.75;8.53;;;;;;;-0.76;68.37;101912.50;1783294;77;20984;-72
2022/12/03 05:50:47;;;;;;;17.95;8.40;;;;;;;-0.78;68.31;101905.14;1794140;77;21817;-72
2022/12/03 05:53:14;;;;;;;14.15;8.13;;;;;;;-0.80;68.24;101906.90;1801196;77;20893;-74
2022/12/03 05:55:41;;;;;;;13.80;8.15;;;;;;;-0.82;68.25;101911.24;1813554;78;21019;-72
2022/12/03 05:58:07;;;;;;;14.45;7.83;;;;;;;-0.82;68.23;101909.95;1806563;79;20994;-72
2022/12/03 06:00:36;;;;;;;13.70;8.10;;;;;;;-0.87;68.16;101909.97;1793491;79;20933;-73
2022/12/03 06:03:05;;;;;;;15.93;8.53;;;;;;;-0.90;68.11;101917.34;1805617;77;21894;-75
2022/12/03 06:05:32;;;;;;;16.60;8.53;;;;;;;-0.92;68.16;101918.23;1807295;77;21036;-74
2022/12/03 06:07:59;;;;;;;13.28;7.87;;;;;;;-0.94;68.14;101923.44;1813730;77;20998;-73
2022/12/03 06:10:26;;;;;;;14.28;8.18;;;;;;;-0.97;68.07;101932.52;1742856;80;21551;-73
2022/12/03 06:12:52;;;;;;;12.82;7.72;;;;;;;-0.98;68.04;101935.13;1752046;80;21486;-73
2022/12/03 06:15:19;;;;;;;13.43;8.10;;;;;;;-1.02;67.82;101934.30;1759576;79;21871;-74
2022/12/03 06:17:46;;;;;;;17.87;7.70;;;;;;;-1.04;67.77;101946.42;1730085;80;21417;-72
2022/12/03 06:20:15;;;;;;;15.08;8.10;;;;;;;-1.06;67.63;101940.39;1729337;80;21447;-74
2022/12/03 06:22:42;;;;;;;15.28;8.20;;;;;;;-1.06;67.54;101936.91;1728572;82;21491;-73
2022/12/03 06:25:09;;;;;;;20.77;7.85;;;;;;;-1.08;67.48;101944.70;1714125;82;21101;-71
2022/12/03 06:27:35;;;;;;;14.35;8.33;;;;;;;-1.07;67.43;101944.26;1721140;81;21915;-73
2022/12/03 06:30:02;;;;;;;13.38;7.95;;;;;;;-1.11;67.23;101946.02;1741747;82;21455;-72
2022/12/03 06:32:29;;;;;;;17.65;8.20;;;;;;;-1.14;67.23;101951.67;1735163;82;21051;-72
2022/12/03 06:34:55;;;;;;;15.68;7.70;;;;;;;-1.16;67.04;101956.84;1725754;82;20980;-73
2022/12/03 06:37:22;;;;;;;15.45;8.28;;;;;;;-1.19;67.00;101955.58;1735473;80;20988;-73
2022/12/03 06:39:48;;;;;;;13.32;7.70;;;;;;;-1.21;66.96;101956.88;1740112;82;21916;-73
2022/12/03 06:42:15;;;;;;;11.85;7.83;;;;;;;-1.21;67.00;101963.80;1740489;82;20978;-73
2022/12/03 06:44:41;;;;;;;15.25;8.28;;;;;;;-1.23;66.78;101961.66;1744130;81;21035;-73
2022/12/03 06:47:08;;;;;;;14.50;8.30;;;;;;;-1.28;66.76;101964.26;1736552;81;21033;-73
2022/12/03 06:49:34;;;;;;;11.95;7.62;;;;;;;-1.32;66.78;101967.75;1734655;80;20997;-72
2022/12/03 06:52:00;;;;;;;14.58;8.10;;;;;;;-1.36;66.85;101967.31;1722090;82;21728;-71
2022/12/03 06:54:27;;;;;;;13.20;7.53;;;;;;;-1.38;66.64;101966.47;1724155;81;21021;-72
2022/12/03 06:56:53;;;;;;;14.25;7.85;;;;;;;-1.42;66.67;101969.95;1738159;80;21562;-72
2022/12/03 06:59:20;;;;;;;12.65;7.40;;;;;;;-1.43;66.64;101986.81;1748581;80;21052;-72
2022/12/03 07:01:46;;;;;;;12.05;6.97;;;;;;;-1.47;66.60;101972.98;1737445;80;21083;-72
2022/12/03 07:04:12;;;;;;;15.03;7.28;;;;;;;-1.48;66.64;101972.56;1740499;80;21944;-72
2022/12/03 07:06:38;;;;;;;15.43;8.23;;;;;;;-1.50;66.66;101976.46;1745785;80;21040;-72
2022/12/03 07:09:05;;;;;;;12.45;7.65;;;;;;;-1.50;66.71;101970.42;1739562;82;21372;-72
2022/12/03 07:11:31;;;;;;;14.05;7.33;;;;;;;-1.53;66.70;101980.38;1799315;79;21042;-72
2022/12/03 07:13:59;;;;;;;13.20;8.00;;;;;;;-1.57;66.75;101983.82;1785862;78;21386;-71
2022/12/03 07:16:26;;;;;;;12.33;7.80;;;;;;;-1.61;66.79;101986.02;1771215;77;21839;-72
2022/12/03 07:18:53;;;;;;;13.10;8.50;;;;;;;-1.65;66.82;101982.13;1791447;77;20971;-73
2022/12/03 07:21:21;;;;;;;16.17;8.28;;;;;;;-1.69;66.95;101980.42;1798150;77;20994;-73
2022/12/03 07:23:48;;;;;;;13.70;7.78;;;;;;;-1.68;67.07;101993.80;1796560;77;20950;-73
2022/12/03 07:26:14;;;;;;;13.50;7.75;;;;;;;-1.71;67.01;101998.56;1798375;77;21240;-73
2022/12/03 07:28:40;;;;;;;14.45;7.60;;;;;;;-1.76;66.88;101989.50;1795238;77;21880;-73
2022/12/03 07:31:07;;;;;;;13.00;6.97;;;;;;;-1.77;66.97;102003.75;1787033;77;21104;-74
2022/12/03 07:33:33;;;;;;;14.55;7.05;;;;;;;-1.79;66.99;101993.41;1799378;78;21448;-74
2022/12/03 07:36:00;;;;;;;15.00;7.60;;;;;;;-1.81;67.06;102008.52;1794498;77;21038;-73
2022/12/03 07:38:26;;;;;;;13.98;8.20;;;;;;;-1.85;67.10;102010.23;1788374;77;21030;-72
2022/12/03 07:40:53;;;;;;;14.03;7.75;;;;;;;-1.89;67.13;102007.67;1787736;77;22429;-73
2022/12/03 07:43:19;;;;;;;19.57;9.18;;;;;;;-1.95;67.26;102011.55;1794303;77;21104;-74
2022/12/03 07:45:47;;;;;;;11.80;7.87;;;;;;;-1.94;67.39;102009.39;1790821;77;33044;-71
2022/12/03 07:48:13;;;;;;;14.05;7.97;;;;;;;-1.93;67.42;102012.01;1778594;77;21126;-72
2022/12/03 07:50:40;;;;;;;12.85;7.85;;;;;;;-1.92;67.44;102023.23;1788499;78;20998;-74
2022/12/03 07:53:06;;;;;;;14.10;7.72;;;;;;;-1.93;67.42;102018.48;1796070;77;22393;-74
2022/12/03 07:55:32;;;;;;;13.75;8.15;;;;;;;-1.94;67.50;102018.45;1790284;77;21056;-73
2022/12/03 07:57:59;;;;;;;11.00;6.72;;;;;;;-1.94;67.58;102023.63;1796404;77;21144;-72
2022/12/03 08:00:25;;;;;;;12.10;7.70;;;;;;;-1.93;67.56;102018.88;1788661;77;21503;-72
2022/12/03 08:02:51;;;;;;;11.18;7.00;;;;;;;-1.94;67.52;102027.09;1798856;78;21001;-73
2022/12/03 08:05:18;;;;;;;11.08;7.15;;;;;;;-1.98;67.34;102027.97;1787054;78;22513;-75
2022/12/03 08:07:44;;;;;;;12.05;7.17;;;;;;;-2.00;67.36;102032.73;1778419;77;20940;-74
2022/12/03 08:10:11;;;;;;;13.25;6.87;;;;;;;-2.01;67.27;102031.87;1791871;78;21030;-73
2022/12/03 10:12:14;;;;;;;8.28;5.40;;;;;;;-1.77;68.48;102036.13;1767545;80;21053;-75
2022/12/03 10:14:41;;;;;;;9.55;6.00;;;;;;;-1.73;68.33;102039.16;1792686;79;22456;-74
2022/12/03 10:17:10;;;;;;;10.65;5.55;;;;;;;-1.72;68.18;102037.00;1815580;78;21405;-75
2022/12/03 10:19:38;;;;;;;9.68;5.45;;;;;;;-1.68;68.07;102043.02;1784201;79;21545;-75
2022/12/03 10:22:04;;;;;;;8.68;5.40;;;;;;;-1.65;67.87;102037.39;1815627;79;20954;-75
2022/12/03 10:24:33;;;;;;;7.42;4.92;;;;;;;-1.64;67.61;102035.66;1807208;79;21000;-74
2022/12/03 10:27:02;;;;;;;12.10;5.40;;;;;;;-1.64;67.46;102032.66;1777225;79;22608;-74
2022/12/03 10:29:37;;;;;;;10.10;5.90;;;;;;;-1.62;67.40;102033.95;1815629;79;20939;-74
2022/12/03 10:32:08;;;;;;;10.68;6.20;;;;;;;-1.59;67.38;102039.97;1810859;78;21461;-75
2022/12/03 10:34:39;;;;;;;8.15;5.55;;;;;;;-1.56;67.35;102028.73;1809899;77;20962;-75
2022/12/03 10:37:19;;;;;;;9.70;5.92;;;;;;;-1.51;67.29;102036.08;1808942;77;21425;-75
2022/12/03 10:39:58;;;;;;;14.60;6.12;;;;;;;-1.45;67.12;102034.33;1808576;77;22527;-75
2022/12/03 10:42:34;;;;;;;100.22;21.60;;;;;;;-1.48;66.59;102033.46;1784577;79;20969;-75
2022/12/03 10:45:19;;;;;;;15.88;7.62;;;;;;;-1.49;66.55;102030.45;1815676;77;21045;-75
2022/12/03 10:48:07;;;;;;;11.43;5.97;;;;;;;-1.48;66.40;102037.34;1812829;77;20951;-76
2022/12/03 10:50:34;;;;;;;80.12;47.50;;;;;;;-1.46;66.38;102033.87;1815676;79;20999;-76
2022/12/03 10:53:01;;;;;;;40.60;21.82;;;;;;;-1.42;66.41;102036.05;1814250;79;22006;-75
2022/12/03 10:55:32;;;;;;;41.98;25.50;;;;;;;-1.39;66.11;102038.61;1813975;79;20922;-75
2022/12/03 10:57:58;;;;;;;13.98;9.13;;;;;;;-1.36;66.05;102044.22;1796282;79;20954;-75
2022/12/03 11:00:25;;;;;;;20.77;14.53;;;;;;;-1.36;65.81;102038.59;1801205;79;20930;-75
2022/12/03 11:02:52;;;;;;;11.50;7.40;;;;;;;-1.34;65.78;102035.59;1814064;78;21016;-75
2022/12/03 11:05:22;;;;;;;9.45;6.47;;;;;;;-1.30;65.71;102034.70;1812902;79;21820;-76
2022/12/03 11:07:49;;;;;;;10.08;6.80;;;;;;;-1.28;65.48;102028.20;1805320;78;21001;-75
2022/12/03 11:10:17;;;;;;;13.13;9.20;;;;;;;-1.27;65.41;102035.97;1815946;78;20930;-75
2022/12/03 11:13:28;;;;;;;10.32;6.80;;;;;;;-1.24;65.32;102029.94;1815707;79;20973;-75
2022/12/03 11:16:07;;;;;;;10.50;6.33;;;;;;;-1.20;65.40;102029.03;1801685;79;21026;-75
2022/12/03 11:18:43;;;;;;;10.50;6.50;;;;;;;-1.14;65.09;102030.75;1814356;77;21847;-75
2022/12/03 11:21:15;;;;;;;9.48;5.30;;;;;;;-1.13;64.98;102028.58;1815994;79;21049;-75
2022/12/03 11:23:53;;;;;;;7.87;4.97;;;;;;;-1.10;64.81;102024.67;1799584;79;20993;-75
2022/12/03 11:26:39;;;;;;;7.78;4.60;;;;;;;-1.08;64.74;102026.37;1801793;77;21064;-75
2022/12/03 11:29:13;;;;;;;11.30;6.97;;;;;;;-1.05;64.58;102030.27;1815046;78;20926;-75
2022/12/03 11:31:49;;;;;;;18.48;10.25;;;;;;;-1.00;64.51;102032.83;1813974;79;21801;-75
2022/12/03 11:34:28;;;;;;;8.68;5.17;;;;;;;-0.97;64.32;102038.84;1811016;79;20984;-75
2022/12/03 11:37:15;;;;;;;7.60;4.87;;;;;;;-0.95;64.15;102045.36;1789288;77;20989;-75
2022/12/03 11:39:58;;;;;;;8.00;4.40;;;;;;;-0.93;63.98;102044.91;1814824;79;20990;-75
2022/12/03 11:42:28;;;;;;;11.03;5.60;;;;;;;-0.91;63.88;102051.80;1814949;79;21043;-76
2022/12/03 11:45:32;;;;;;;9.25;5.08;;;;;;;-0.85;63.88;102044.87;1814662;77;21769;-76
2022/12/03 11:48:07;;;;;;;8.40;5.05;;;;;;;-0.81;63.55;102043.97;1800992;79;21067;-75
2022/12/03 11:50:52;;;;;;;10.50;5.90;;;;;;;-0.79;63.39;102039.19;1762672;80;21510;-76
2022/12/03 11:53:23;;;;;;;9.30;5.92;;;;;;;-0.74;63.37;102042.63;1770215;79;20966;-76
2022/12/03 11:56:15;;;;;;;;;;;;;;;;;;;;;
2022/12/03 11:58:28;;;;;;;7.12;4.28;;;;;;;-0.63;62.92;102051.64;1780768;79;21913;-76
2022/12/03 12:01:05;;;;;;;10.05;6.35;;;;;;;-0.59;62.84;102053.33;1751389;80;20946;-75
2022/12/03 12:03:47;;;;;;;11.85;7.03;;;;;;;-0.55;62.59;102058.09;1802909;77;20982;-78
2022/12/03 12:06:17;;;;;;;10.78;6.30;;;;;;;-0.52;62.53;102050.27;1813701;77;20973;-76
2022/12/03 12:08:55;;;;;;;9.28;5.53;;;;;;;-0.48;62.44;102050.66;1811179;79;21389;-76
2022/12/03 12:11:37;;;;;;;10.00;6.67;;;;;;;-0.47;62.09;102053.71;1808403;77;21921;-76
2022/12/03 12:14:07;;;;;;;11.95;7.03;;;;;;;-0.46;62.02;102047.64;1805603;77;21465;-76
2022/12/03 12:16:50;;;;;;;11.05;5.58;;;;;;;-0.38;62.16;102048.02;1798242;79;20986;-75
2022/12/03 12:22:44;;;;;;;9.10;5.60;;;;;;;-0.28;61.58;102054.00;1772784;79;20954;-75
2022/12/03 12:25:36;;;;;;;8.65;5.30;;;;;;;-0.30;61.12;102055.72;1792939;78;21688;-75
2022/12/03 12:28:21;;;;;;;10.75;7.40;;;;;;;-0.34;60.96;102056.19;1765881;81;21007;-75
2022/12/03 12:31:10;;;;;;;10.25;6.65;;;;;;;-0.33;61.25;102046.23;1792797;79;21017;-74
2022/12/03 12:33:37;;;;;;;11.70;5.97;;;;;;;-0.19;61.39;102049.14;1778872;78;20934;-74
2022/12/03 12:36:16;;;;;;;8.75;5.62;;;;;;;0.05;61.54;102051.98;1797229;79;21006;-75
2022/12/03 12:38:43;;;;;;;9.00;5.78;;;;;;;0.22;61.14;102061.34;1797159;79;21803;-75
2022/12/03 12:41:09;;;;;;;8.68;5.28;;;;;;;0.32;60.66;102058.66;1799058;79;21556;-75
2022/12/03 12:43:38;;;;;;;8.63;5.00;;;;;;;0.44;60.80;102048.98;1798220;78;20939;-75
2022/12/03 12:46:10;;;;;;;8.13;5.28;;;;;;;0.63;60.47;102063.08;1797517;78;21061;-75
2022/12/03 12:51:23;;;;;;;8.88;5.60;;;;;;;0.70;59.25;102064.74;1685977;81;21761;-75
2022/12/03 12:53:50;;;;;;;6.62;4.55;;;;;;;0.63;59.12;102066.98;1776779;79;21022;-75
2022/12/03 12:56:31;;;;;;;6.97;4.95;;;;;;;0.54;58.94;102071.41;1796081;79;21139;-76
2022/12/03 12:59:02;;;;;;;8.30;5.17;;;;;;;0.45;58.81;102070.20;1792168;79;20955;-75
2022/12/03 13:01:34;;;;;;;9.33;5.87;;;;;;;0.32;58.34;102075.11;1765090;81;20982;-75
2022/12/03 13:04:38;;;;;;;9.85;6.35;;;;;;;0.18;58.50;102070.03;1791523;78;22517;-75
2022/12/03 13:07:03;;;;;;;11.43;6.25;;;;;;;0.10;58.44;102073.59;1798766;79;20999;-75
2022/12/03 13:09:29;;;;;;;12.00;6.65;;;;;;;0.01;58.67;102074.98;1732200;81;20948;-75
2022/12/03 13:12:02;;;;;;;11.35;6.80;;;;;;;-0.04;58.85;102081.05;1792291;78;20995;-75
2022/12/03 13:14:36;;;;;;;12.35;7.22;;;;;;;-0.05;58.94;102088.86;1781790;79;21523;-75
2022/12/03 13:17:24;;;;;;;;;;;;;;;-0.10;58.91;102086.28;1799821;79;21844;-75
2022/12/03 13:19:53;;;;;;;11.48;6.92;;;;;;;-0.16;59.07;102085.06;1780612;79;20171;-75
2022/12/03 13:22:21;;;;;;;11.43;6.60;;;;;;;-0.21;59.33;102082.92;1781839;79;21041;-75
2022/12/03 13:24:53;;;;;;;9.80;6.33;;;;;;;-0.23;59.45;102083.38;1804465;77;21364;-76
2022/12/03 13:27:36;;;;;;;9.55;5.95;;;;;;;-0.25;59.63;102089.46;1759114;79;20946;-75
2022/12/03 13:30:14;;;;;;;11.35;6.08;;;;;;;-0.29;59.75;102093.79;1681741;85;22543;-75
2022/12/03 13:32:41;;;;;;;9.73;5.58;;;;;;;-0.32;59.76;102099.02;1735282;80;21444;-75
2022/12/03 13:35:25;;;;;;;11.63;6.20;;;;;;;-0.36;59.94;102097.33;1728760;80;20966;-75
2022/12/03 16:19:26;;;;;;;8.65;5.80;;;;;;;-1.43;64.00;102240.80;1679697;84;21058;-75
2022/12/03 16:21:53;;;;;;;11.38;6.33;;;;;;;-1.46;64.20;102236.45;1670533;84;21209;-74
2022/12/03 16:24:19;;;;;;;9.53;5.80;;;;;;;-1.47;64.36;102246.39;1679580;84;21065;-75
2022/12/03 16:26:46;;;;;;;11.10;5.53;;;;;;;-1.47;64.45;102247.69;1669235;84;21071;-75
2022/12/03 16:29:13;;;;;;;10.58;5.95;;;;;;;-1.51;64.58;102252.45;1672272;84;21125;-74
2022/12/03 16:31:43;;;;;;;10.43;6.12;;;;;;;-1.53;64.76;102261.95;1669345;84;21939;-76
2022/12/03 16:34:11;;;;;;;8.83;5.67;;;;;;;-1.54;64.90;102245.98;1673760;84;21008;-76
2022/12/03 16:36:38;;;;;;;11.45;6.25;;;;;;;-1.53;65.07;102260.23;1668545;84;21071;-76